sensor_id;sensor_type;location;lat;lon;timestamp;P1;durP1;ratioP1;P2;durP2;ratioP2
19251;SDS011;9760;50.944;5.304;2022-12-18T00:01:29;83.27;;;26.77;;
19251;SDS011;9760;50.944;5.304;2022-12-18T00:03:59;84.93;;;26.83;;
19251;SDS011;9760;50.944;5.304;2022-12-18T00:06:26;94.97;;;27.67;;
19251;SDS011;9760;50.944;5.304;2022-12-18T00:08:54;92.60;;;27.10;;
19251;SDS011;9760;50.944;5.304;2022-12-18T00:11:21;96.80;;;28.33;;
19251;SDS011;9760;50.944;5.304;2022-12-18T00:13:51;99.07;;;29.33;;
19251;SDS011;9760;50.944;5.304;2022-12-18T00:16:20;101.13;;;30.17;;
19251;SDS011;9760;50.944;5.304;2022-12-18T00:18:47;100.67;;;29.10;;
19251;SDS011;9760;50.944;5.304;2022-12-18T00:21:14;105.70;;;29.60;;
19251;SDS011;9760;50.944;5.304;2022-12-18T00:23:41;93.97;;;29.43;;
19251;SDS011;9760;50.944;5.304;2022-12-18T00:26:10;87.70;;;27.20;;
19251;SDS011;9760;50.944;5.304;2022-12-18T00:28:37;92.53;;;27.87;;
19251;SDS011;9760;50.944;5.304;2022-12-18T00:31:04;91.17;;;28.00;;
19251;SDS011;9760;50.944;5.304;2022-12-18T00:33:31;93.03;;;26.67;;
19251;SDS011;9760;50.944;5.304;2022-12-18T00:36:03;88.73;;;27.17;;
19251;SDS011;9760;50.944;5.304;2022-12-18T00:38:34;86.80;;;25.93;;
19251;SDS011;9760;50.944;5.304;2022-12-18T00:41:01;87.83;;;26.93;;
19251;SDS011;9760;50.944;5.304;2022-12-18T00:43:26;86.23;;;27.73;;
19251;SDS011;9760;50.944;5.304;2022-12-18T00:45:52;86.53;;;28.10;;
19251;SDS011;9760;50.944;5.304;2022-12-18T00:48:18;91.00;;;27.73;;
19251;SDS011;9760;50.944;5.304;2022-12-18T00:50:43;91.53;;;28.07;;
19251;SDS011;9760;50.944;5.304;2022-12-18T00:53:09;74.87;;;26.47;;
19251;SDS011;9760;50.944;5.304;2022-12-18T00:55:36;74.23;;;24.73;;
19251;SDS011;9760;50.944;5.304;2022-12-18T00:58:03;80.77;;;26.40;;
19251;SDS011;9760;50.944;5.304;2022-12-18T01:00:29;85.53;;;26.63;;
19251;SDS011;9760;50.944;5.304;2022-12-18T01:02:54;86.93;;;26.37;;
19251;SDS011;9760;50.944;5.304;2022-12-18T01:05:20;74.93;;;25.67;;
19251;SDS011;9760;50.944;5.304;2022-12-18T01:07:46;86.57;;;27.10;;
19251;SDS011;9760;50.944;5.304;2022-12-18T01:10:11;87.27;;;25.73;;
19251;SDS011;9760;50.944;5.304;2022-12-18T01:12:38;80.23;;;24.67;;
19251;SDS011;9760;50.944;5.304;2022-12-18T01:15:04;82.73;;;24.50;;
19251;SDS011;9760;50.944;5.304;2022-12-18T01:17:31;72.07;;;24.17;;
19251;SDS011;9760;50.944;5.304;2022-12-18T01:19:57;78.07;;;24.97;;
19251;SDS011;9760;50.944;5.304;2022-12-18T01:22:22;82.13;;;24.70;;
19251;SDS011;9760;50.944;5.304;2022-12-18T01:24:48;86.10;;;25.70;;
19251;SDS011;9760;50.944;5.304;2022-12-18T01:27:14;80.17;;;23.60;;
19251;SDS011;9760;50.944;5.304;2022-12-18T01:29:39;79.53;;;24.63;;
19251;SDS011;9760;50.944;5.304;2022-12-18T01:32:05;80.37;;;25.27;;
19251;SDS011;9760;50.944;5.304;2022-12-18T01:34:30;83.37;;;26.87;;
19251;SDS011;9760;50.944;5.304;2022-12-18T01:36:56;78.50;;;25.70;;
19251;SDS011;9760;50.944;5.304;2022-12-18T01:39:22;78.17;;;24.27;;
19251;SDS011;9760;50.944;5.304;2022-12-18T01:41:47;74.93;;;24.33;;
19251;SDS011;9760;50.944;5.304;2022-12-18T01:50:31;75.20;;;25.57;;
19251;SDS011;9760;50.944;5.304;2022-12-18T01:55:42;71.93;;;22.93;;
19251;SDS011;9760;50.944;5.304;2022-12-18T01:58:11;70.40;;;24.43;;
19251;SDS011;9760;50.944;5.304;2022-12-18T02:00:37;79.87;;;24.10;;
19251;SDS011;9760;50.944;5.304;2022-12-18T02:03:03;83.57;;;24.73;;
19251;SDS011;9760;50.944;5.304;2022-12-18T02:08:26;76.47;;;24.43;;
19251;SDS011;9760;50.944;5.304;2022-12-18T02:18:56;72.43;;;23.73;;
19251;SDS011;9760;50.944;5.304;2022-12-18T02:21:32;72.53;;;22.57;;
19251;SDS011;9760;50.944;5.304;2022-12-18T02:27:01;66.33;;;22.47;;
19251;SDS011;9760;50.944;5.304;2022-12-18T02:29:35;63.87;;;20.20;;
19251;SDS011;9760;50.944;5.304;2022-12-18T02:32:10;72.17;;;21.03;;
19251;SDS011;9760;50.944;5.304;2022-12-18T02:34:40;62.97;;;22.23;;
19251;SDS011;9760;50.944;5.304;2022-12-18T02:37:09;68.50;;;21.57;;
19251;SDS011;9760;50.944;5.304;2022-12-18T02:39:39;66.43;;;20.67;;
19251;SDS011;9760;50.944;5.304;2022-12-18T02:42:07;64.03;;;20.90;;
19251;SDS011;9760;50.944;5.304;2022-12-18T02:44:43;54.77;;;20.13;;
19251;SDS011;9760;50.944;5.304;2022-12-18T02:47:11;73.80;;;22.20;;
19251;SDS011;9760;50.944;5.304;2022-12-18T03:00:27;58.53;;;20.77;;
19251;SDS011;9760;50.944;5.304;2022-12-18T03:05:30;59.30;;;19.43;;
19251;SDS011;9760;50.944;5.304;2022-12-18T03:08:12;52.10;;;20.00;;
19251;SDS011;9760;50.944;5.304;2022-12-18T03:10:47;59.70;;;18.53;;
19251;SDS011;9760;50.944;5.304;2022-12-18T03:13:20;66.97;;;20.40;;
19251;SDS011;9760;50.944;5.304;2022-12-18T03:15:51;61.13;;;19.53;;
19251;SDS011;9760;50.944;5.304;2022-12-18T03:18:25;61.77;;;20.73;;
19251;SDS011;9760;50.944;5.304;2022-12-18T03:21:21;53.00;;;19.43;;
19251;SDS011;9760;50.944;5.304;2022-12-18T03:23:54;61.90;;;20.87;;
19251;SDS011;9760;50.944;5.304;2022-12-18T03:26:23;54.87;;;19.93;;
19251;SDS011;9760;50.944;5.304;2022-12-18T03:28:57;59.37;;;19.43;;
19251;SDS011;9760;50.944;5.304;2022-12-18T03:31:28;66.37;;;21.23;;
19251;SDS011;9760;50.944;5.304;2022-12-18T03:34:01;56.97;;;18.30;;
19251;SDS011;9760;50.944;5.304;2022-12-18T03:36:31;58.50;;;19.03;;
19251;SDS011;9760;50.944;5.304;2022-12-18T03:38:58;55.70;;;20.17;;
19251;SDS011;9760;50.944;5.304;2022-12-18T03:41:47;58.47;;;19.93;;
19251;SDS011;9760;50.944;5.304;2022-12-18T03:47:09;58.07;;;19.27;;
19251;SDS011;9760;50.944;5.304;2022-12-18T03:49:47;59.80;;;20.27;;
19251;SDS011;9760;50.944;5.304;2022-12-18T03:52:23;52.17;;;18.20;;
19251;SDS011;9760;50.944;5.304;2022-12-18T03:54:51;59.07;;;19.40;;
19251;SDS011;9760;50.944;5.304;2022-12-18T03:57:19;46.13;;;17.27;;
19251;SDS011;9760;50.944;5.304;2022-12-18T03:59:49;57.23;;;18.20;;
19251;SDS011;9760;50.944;5.304;2022-12-18T04:02:19;44.73;;;17.67;;
19251;SDS011;9760;50.944;5.304;2022-12-18T04:04:47;57.20;;;17.30;;
19251;SDS011;9760;50.944;5.304;2022-12-18T04:07:20;51.33;;;16.40;;
19251;SDS011;9760;50.944;5.304;2022-12-18T04:09:48;61.50;;;19.20;;
19251;SDS011;9760;50.944;5.304;2022-12-18T04:12:15;60.87;;;17.30;;
19251;SDS011;9760;50.944;5.304;2022-12-18T04:14:40;56.20;;;18.77;;
19251;SDS011;9760;50.944;5.304;2022-12-18T04:17:06;55.17;;;17.27;;
19251;SDS011;9760;50.944;5.304;2022-12-18T04:19:32;57.13;;;19.37;;
19251;SDS011;9760;50.944;5.304;2022-12-18T04:21:57;49.90;;;18.00;;
19251;SDS011;9760;50.944;5.304;2022-12-18T04:24:23;50.90;;;16.20;;
19251;SDS011;9760;50.944;5.304;2022-12-18T04:26:49;46.37;;;16.80;;
19251;SDS011;9760;50.944;5.304;2022-12-18T04:29:14;57.30;;;16.70;;
19251;SDS011;9760;50.944;5.304;2022-12-18T04:31:40;44.47;;;16.20;;
19251;SDS011;9760;50.944;5.304;2022-12-18T04:34:06;39.37;;;14.27;;
19251;SDS011;9760;50.944;5.304;2022-12-18T04:36:31;52.17;;;17.57;;
19251;SDS011;9760;50.944;5.304;2022-12-18T04:38:57;50.90;;;16.23;;
19251;SDS011;9760;50.944;5.304;2022-12-18T04:41:22;53.90;;;18.03;;
19251;SDS011;9760;50.944;5.304;2022-12-18T04:43:48;56.27;;;16.40;;
19251;SDS011;9760;50.944;5.304;2022-12-18T04:46:14;49.43;;;16.80;;
19251;SDS011;9760;50.944;5.304;2022-12-18T04:48:39;54.13;;;15.90;;
19251;SDS011;9760;50.944;5.304;2022-12-18T04:51:05;51.93;;;17.57;;
19251;SDS011;9760;50.944;5.304;2022-12-18T04:53:31;48.83;;;16.60;;
19251;SDS011;9760;50.944;5.304;2022-12-18T04:56:07;46.23;;;17.13;;
19251;SDS011;9760;50.944;5.304;2022-12-18T04:58:35;53.97;;;16.47;;
19251;SDS011;9760;50.944;5.304;2022-12-18T05:01:02;49.60;;;16.20;;
19251;SDS011;9760;50.944;5.304;2022-12-18T05:03:28;50.97;;;15.57;;
19251;SDS011;9760;50.944;5.304;2022-12-18T05:05:54;47.00;;;15.17;;
19251;SDS011;9760;50.944;5.304;2022-12-18T05:08:20;51.93;;;16.87;;
19251;SDS011;9760;50.944;5.304;2022-12-18T05:10:45;48.80;;;16.23;;
19251;SDS011;9760;50.944;5.304;2022-12-18T05:13:11;40.03;;;15.97;;
19251;SDS011;9760;50.944;5.304;2022-12-18T05:15:36;46.87;;;16.47;;
19251;SDS011;9760;50.944;5.304;2022-12-18T05:18:02;50.03;;;16.33;;
19251;SDS011;9760;50.944;5.304;2022-12-18T05:20:28;47.50;;;14.53;;
19251;SDS011;9760;50.944;5.304;2022-12-18T05:22:54;40.70;;;13.83;;
19251;SDS011;9760;50.944;5.304;2022-12-18T05:25:20;46.17;;;15.13;;
19251;SDS011;9760;50.944;5.304;2022-12-18T05:27:46;44.53;;;14.60;;
19251;SDS011;9760;50.944;5.304;2022-12-18T05:30:13;50.93;;;15.73;;
19251;SDS011;9760;50.944;5.304;2022-12-18T05:32:39;47.43;;;16.10;;
19251;SDS011;9760;50.944;5.304;2022-12-18T05:35:06;45.53;;;15.83;;
19251;SDS011;9760;50.944;5.304;2022-12-18T05:37:33;40.90;;;13.57;;
19251;SDS011;9760;50.944;5.304;2022-12-18T05:39:58;46.80;;;15.60;;
19251;SDS011;9760;50.944;5.304;2022-12-18T05:42:24;41.53;;;15.27;;
19251;SDS011;9760;50.944;5.304;2022-12-18T05:44:50;41.57;;;15.50;;
19251;SDS011;9760;50.944;5.304;2022-12-18T05:47:16;40.53;;;14.57;;
19251;SDS011;9760;50.944;5.304;2022-12-18T05:49:41;50.97;;;14.73;;
19251;SDS011;9760;50.944;5.304;2022-12-18T05:52:07;45.80;;;15.13;;
19251;SDS011;9760;50.944;5.304;2022-12-18T05:54:32;45.10;;;15.00;;
19251;SDS011;9760;50.944;5.304;2022-12-18T05:56:58;42.37;;;14.70;;
19251;SDS011;9760;50.944;5.304;2022-12-18T05:59:24;38.43;;;13.90;;
19251;SDS011;9760;50.944;5.304;2022-12-18T06:01:49;38.73;;;13.80;;
19251;SDS011;9760;50.944;5.304;2022-12-18T06:04:15;31.93;;;13.47;;
19251;SDS011;9760;50.944;5.304;2022-12-18T06:06:41;35.07;;;14.17;;
19251;SDS011;9760;50.944;5.304;2022-12-18T06:09:06;48.17;;;13.70;;
19251;SDS011;9760;50.944;5.304;2022-12-18T06:11:34;37.43;;;13.73;;
19251;SDS011;9760;50.944;5.304;2022-12-18T06:14:01;39.97;;;12.93;;
19251;SDS011;9760;50.944;5.304;2022-12-18T06:16:28;41.90;;;14.43;;
19251;SDS011;9760;50.944;5.304;2022-12-18T06:18:57;34.80;;;13.17;;
19251;SDS011;9760;50.944;5.304;2022-12-18T06:21:27;43.47;;;13.10;;
19251;SDS011;9760;50.944;5.304;2022-12-18T06:23:53;44.50;;;13.50;;
19251;SDS011;9760;50.944;5.304;2022-12-18T06:26:19;46.27;;;13.80;;
19251;SDS011;9760;50.944;5.304;2022-12-18T06:28:45;33.93;;;12.70;;
19251;SDS011;9760;50.944;5.304;2022-12-18T06:31:11;37.17;;;12.27;;
19251;SDS011;9760;50.944;5.304;2022-12-18T06:33:37;33.27;;;13.33;;
19251;SDS011;9760;50.944;5.304;2022-12-18T06:36:04;33.37;;;12.37;;
19251;SDS011;9760;50.944;5.304;2022-12-18T06:38:32;37.57;;;12.43;;
19251;SDS011;9760;50.944;5.304;2022-12-18T06:40:58;33.57;;;13.07;;
19251;SDS011;9760;50.944;5.304;2022-12-18T06:43:24;36.53;;;13.47;;
19251;SDS011;9760;50.944;5.304;2022-12-18T06:45:49;41.67;;;13.57;;
19251;SDS011;9760;50.944;5.304;2022-12-18T06:48:18;38.00;;;11.90;;
19251;SDS011;9760;50.944;5.304;2022-12-18T06:50:44;35.53;;;14.00;;
19251;SDS011;9760;50.944;5.304;2022-12-18T06:53:10;34.47;;;13.00;;
19251;SDS011;9760;50.944;5.304;2022-12-18T06:55:36;31.97;;;12.70;;
19251;SDS011;9760;50.944;5.304;2022-12-18T06:58:02;37.63;;;13.63;;
19251;SDS011;9760;50.944;5.304;2022-12-18T07:00:27;42.73;;;13.53;;
19251;SDS011;9760;50.944;5.304;2022-12-18T07:02:53;31.87;;;13.53;;
19251;SDS011;9760;50.944;5.304;2022-12-18T07:05:19;37.23;;;13.00;;
19251;SDS011;9760;50.944;5.304;2022-12-18T07:07:44;33.47;;;12.97;;
19251;SDS011;9760;50.944;5.304;2022-12-18T07:10:10;42.63;;;13.37;;
19251;SDS011;9760;50.944;5.304;2022-12-18T07:12:35;33.83;;;12.60;;
19251;SDS011;9760;50.944;5.304;2022-12-18T07:15:01;40.10;;;13.67;;
19251;SDS011;9760;50.944;5.304;2022-12-18T07:17:27;34.93;;;12.37;;
19251;SDS011;9760;50.944;5.304;2022-12-18T07:19:54;33.33;;;11.23;;
19251;SDS011;9760;50.944;5.304;2022-12-18T07:22:20;33.63;;;11.83;;
19251;SDS011;9760;50.944;5.304;2022-12-18T07:24:45;36.63;;;12.47;;
19251;SDS011;9760;50.944;5.304;2022-12-18T07:27:15;34.43;;;11.60;;
19251;SDS011;9760;50.944;5.304;2022-12-18T07:29:40;32.40;;;11.47;;
19251;SDS011;9760;50.944;5.304;2022-12-18T07:32:09;30.57;;;9.83;;
19251;SDS011;9760;50.944;5.304;2022-12-18T07:34:35;34.33;;;11.93;;
19251;SDS011;9760;50.944;5.304;2022-12-18T07:37:00;31.13;;;11.70;;
19251;SDS011;9760;50.944;5.304;2022-12-18T07:39:26;35.13;;;11.93;;
19251;SDS011;9760;50.944;5.304;2022-12-18T07:41:51;31.20;;;11.27;;
19251;SDS011;9760;50.944;5.304;2022-12-18T07:44:36;33.07;;;11.60;;
19251;SDS011;9760;50.944;5.304;2022-12-18T07:47:02;31.43;;;11.53;;
19251;SDS011;9760;50.944;5.304;2022-12-18T07:49:28;29.53;;;11.23;;
19251;SDS011;9760;50.944;5.304;2022-12-18T07:51:54;34.20;;;11.30;;
19251;SDS011;9760;50.944;5.304;2022-12-18T07:54:21;29.67;;;10.30;;
19251;SDS011;9760;50.944;5.304;2022-12-18T07:56:47;28.43;;;10.67;;
19251;SDS011;9760;50.944;5.304;2022-12-18T07:59:13;30.93;;;11.33;;
19251;SDS011;9760;50.944;5.304;2022-12-18T08:01:38;39.10;;;12.43;;
19251;SDS011;9760;50.944;5.304;2022-12-18T08:04:04;37.30;;;11.97;;
19251;SDS011;9760;50.944;5.304;2022-12-18T08:06:30;33.80;;;11.60;;
19251;SDS011;9760;50.944;5.304;2022-12-18T08:08:55;32.77;;;10.63;;
19251;SDS011;9760;50.944;5.304;2022-12-18T08:11:22;27.80;;;10.93;;
19251;SDS011;9760;50.944;5.304;2022-12-18T08:13:49;34.63;;;11.00;;
19251;SDS011;9760;50.944;5.304;2022-12-18T08:16:14;28.57;;;11.37;;
19251;SDS011;9760;50.944;5.304;2022-12-18T08:18:41;28.03;;;10.10;;
19251;SDS011;9760;50.944;5.304;2022-12-18T08:23:36;33.70;;;10.83;;
19251;SDS011;9760;50.944;5.304;2022-12-18T08:26:02;26.80;;;10.63;;
19251;SDS011;9760;50.944;5.304;2022-12-18T08:28:27;40.10;;;10.90;;
19251;SDS011;9760;50.944;5.304;2022-12-18T08:30:53;27.87;;;10.00;;
19251;SDS011;9760;50.944;5.304;2022-12-18T08:33:19;26.10;;;10.20;;
19251;SDS011;9760;50.944;5.304;2022-12-18T08:35:44;28.87;;;10.37;;
19251;SDS011;9760;50.944;5.304;2022-12-18T08:38:10;26.03;;;9.90;;
19251;SDS011;9760;50.944;5.304;2022-12-18T08:40:35;29.93;;;10.33;;
19251;SDS011;9760;50.944;5.304;2022-12-18T08:43:01;27.47;;;10.43;;
19251;SDS011;9760;50.944;5.304;2022-12-18T08:45:45;28.87;;;9.80;;
19251;SDS011;9760;50.944;5.304;2022-12-18T08:48:10;29.13;;;10.30;;
19251;SDS011;9760;50.944;5.304;2022-12-18T08:50:36;32.63;;;10.10;;
19251;SDS011;9760;50.944;5.304;2022-12-18T08:53:02;28.47;;;9.97;;
19251;SDS011;9760;50.944;5.304;2022-12-18T08:55:27;22.70;;;10.00;;
19251;SDS011;9760;50.944;5.304;2022-12-18T08:57:53;26.87;;;10.20;;
19251;SDS011;9760;50.944;5.304;2022-12-18T09:00:19;19.60;;;9.33;;
19251;SDS011;9760;50.944;5.304;2022-12-18T09:02:45;28.53;;;10.03;;
19251;SDS011;9760;50.944;5.304;2022-12-18T09:05:10;25.57;;;10.13;;
19251;SDS011;9760;50.944;5.304;2022-12-18T09:07:36;22.53;;;9.33;;
19251;SDS011;9760;50.944;5.304;2022-12-18T09:10:02;25.27;;;9.47;;
19251;SDS011;9760;50.944;5.304;2022-12-18T09:12:27;22.97;;;9.17;;
19251;SDS011;9760;50.944;5.304;2022-12-18T09:14:53;21.03;;;8.93;;
19251;SDS011;9760;50.944;5.304;2022-12-18T09:17:19;24.57;;;9.10;;
19251;SDS011;9760;50.944;5.304;2022-12-18T09:19:44;28.33;;;9.93;;
19251;SDS011;9760;50.944;5.304;2022-12-18T09:22:10;21.57;;;8.97;;
19251;SDS011;9760;50.944;5.304;2022-12-18T09:24:35;20.83;;;9.10;;
19251;SDS011;9760;50.944;5.304;2022-12-18T09:27:01;24.50;;;9.20;;
19251;SDS011;9760;50.944;5.304;2022-12-18T09:29:27;21.30;;;8.93;;
19251;SDS011;9760;50.944;5.304;2022-12-18T09:31:52;20.60;;;8.13;;
19251;SDS011;9760;50.944;5.304;2022-12-18T09:34:18;21.80;;;9.50;;
19251;SDS011;9760;50.944;5.304;2022-12-18T09:36:45;19.67;;;8.50;;
19251;SDS011;9760;50.944;5.304;2022-12-18T09:39:11;18.37;;;8.73;;
19251;SDS011;9760;50.944;5.304;2022-12-18T09:44:17;24.03;;;8.43;;
19251;SDS011;9760;50.944;5.304;2022-12-18T09:47:07;17.13;;;7.90;;
19251;SDS011;9760;50.944;5.304;2022-12-18T09:49:45;21.60;;;8.70;;
19251;SDS011;9760;50.944;5.304;2022-12-18T09:54:52;19.90;;;8.93;;
19251;SDS011;9760;50.944;5.304;2022-12-18T09:57:29;24.40;;;9.27;;
19251;SDS011;9760;50.944;5.304;2022-12-18T10:00:03;22.97;;;8.97;;
19251;SDS011;9760;50.944;5.304;2022-12-18T10:02:36;20.07;;;9.03;;
19251;SDS011;9760;50.944;5.304;2022-12-18T10:05:06;25.47;;;9.77;;
19251;SDS011;9760;50.944;5.304;2022-12-18T10:15:27;22.83;;;10.37;;
19251;SDS011;9760;50.944;5.304;2022-12-18T10:21:20;22.57;;;9.17;;
19251;SDS011;9760;50.944;5.304;2022-12-18T10:23:54;30.73;;;10.13;;
19251;SDS011;9760;50.944;5.304;2022-12-18T10:26:28;24.37;;;9.87;;
19251;SDS011;9760;50.944;5.304;2022-12-18T10:28:56;21.57;;;8.50;;
19251;SDS011;9760;50.944;5.304;2022-12-18T10:31:24;23.17;;;9.47;;
19251;SDS011;9760;50.944;5.304;2022-12-18T10:33:49;23.83;;;9.93;;
19251;SDS011;9760;50.944;5.304;2022-12-18T10:36:15;23.57;;;9.33;;
19251;SDS011;9760;50.944;5.304;2022-12-18T10:38:41;22.77;;;9.60;;
19251;SDS011;9760;50.944;5.304;2022-12-18T10:43:47;20.77;;;8.90;;
19251;SDS011;9760;50.944;5.304;2022-12-18T10:46:16;23.53;;;9.90;;
19251;SDS011;9760;50.944;5.304;2022-12-18T10:48:50;25.47;;;10.40;;
19251;SDS011;9760;50.944;5.304;2022-12-18T10:53:55;23.17;;;10.00;;
19251;SDS011;9760;50.944;5.304;2022-12-18T10:56:24;23.33;;;10.17;;
19251;SDS011;9760;50.944;5.304;2022-12-18T10:59:00;26.77;;;9.63;;
19251;SDS011;9760;50.944;5.304;2022-12-18T11:01:53;29.77;;;10.43;;
19251;SDS011;9760;50.944;5.304;2022-12-18T11:04:22;29.83;;;10.87;;
19251;SDS011;9760;50.944;5.304;2022-12-18T11:09:25;28.23;;;11.03;;
19251;SDS011;9760;50.944;5.304;2022-12-18T11:11:52;26.43;;;12.23;;
19251;SDS011;9760;50.944;5.304;2022-12-18T11:14:25;33.10;;;10.83;;
19251;SDS011;9760;50.944;5.304;2022-12-18T11:16:56;21.77;;;10.17;;
19251;SDS011;9760;50.944;5.304;2022-12-18T11:22:00;25.00;;;11.03;;
19251;SDS011;9760;50.944;5.304;2022-12-18T11:24:32;22.93;;;11.00;;
19251;SDS011;9760;50.944;5.304;2022-12-18T11:27:00;26.93;;;11.17;;
19251;SDS011;9760;50.944;5.304;2022-12-18T11:29:31;25.30;;;11.80;;
19251;SDS011;9760;50.944;5.304;2022-12-18T11:37:43;27.23;;;11.07;;
19251;SDS011;9760;50.944;5.304;2022-12-18T11:40:17;24.40;;;10.40;;
19251;SDS011;9760;50.944;5.304;2022-12-18T11:42:50;23.37;;;10.90;;
19251;SDS011;9760;50.944;5.304;2022-12-18T11:45:23;26.47;;;10.30;;
19251;SDS011;9760;50.944;5.304;2022-12-18T11:47:52;28.73;;;11.00;;
19251;SDS011;9760;50.944;5.304;2022-12-18T11:50:33;27.13;;;10.63;;
19251;SDS011;9760;50.944;5.304;2022-12-18T11:53:11;27.03;;;11.17;;
19251;SDS011;9760;50.944;5.304;2022-12-18T11:55:52;27.40;;;11.50;;
19251;SDS011;9760;50.944;5.304;2022-12-18T11:58:57;27.17;;;10.67;;
19251;SDS011;9760;50.944;5.304;2022-12-18T12:21:34;25.07;;;10.37;;
19251;SDS011;9760;50.944;5.304;2022-12-18T12:24:30;24.73;;;10.80;;
19251;SDS011;9760;50.944;5.304;2022-12-18T12:40:50;26.77;;;10.73;;
19251;SDS011;9760;50.944;5.304;2022-12-18T12:43:27;21.50;;;9.40;;
19251;SDS011;9760;50.944;5.304;2022-12-18T12:48:43;20.77;;;9.90;;
19251;SDS011;9760;50.944;5.304;2022-12-18T12:51:21;32.10;;;11.33;;
19251;SDS011;9760;50.944;5.304;2022-12-18T12:53:57;30.10;;;11.47;;
19251;SDS011;9760;50.944;5.304;2022-12-18T12:56:32;28.97;;;11.13;;
19251;SDS011;9760;50.944;5.304;2022-12-18T12:59:22;29.77;;;9.93;;
19251;SDS011;9760;50.944;5.304;2022-12-18T13:12:53;24.87;;;10.67;;
19251;SDS011;9760;50.944;5.304;2022-12-18T13:15:49;27.80;;;11.27;;
19251;SDS011;9760;50.944;5.304;2022-12-18T13:18:29;23.63;;;9.87;;
19251;SDS011;9760;50.944;5.304;2022-12-18T13:25:56;30.97;;;10.77;;
19251;SDS011;9760;50.944;5.304;2022-12-18T13:31:11;31.77;;;12.07;;
19251;SDS011;9760;50.944;5.304;2022-12-18T13:33:39;27.70;;;11.10;;
19251;SDS011;9760;50.944;5.304;2022-12-18T13:41:53;35.03;;;11.20;;
19251;SDS011;9760;50.944;5.304;2022-12-18T13:44:58;30.67;;;12.63;;
19251;SDS011;9760;50.944;5.304;2022-12-18T13:47:25;24.60;;;10.80;;
19251;SDS011;9760;50.944;5.304;2022-12-18T13:49:56;43.00;;;11.87;;
19251;SDS011;9760;50.944;5.304;2022-12-18T13:52:24;28.83;;;11.40;;
19251;SDS011;9760;50.944;5.304;2022-12-18T13:54:51;29.43;;;11.77;;
19251;SDS011;9760;50.944;5.304;2022-12-18T13:57:27;32.47;;;11.67;;
19251;SDS011;9760;50.944;5.304;2022-12-18T13:59:53;33.03;;;12.40;;
19251;SDS011;9760;50.944;5.304;2022-12-18T14:02:21;25.93;;;11.67;;
19251;SDS011;9760;50.944;5.304;2022-12-18T14:04:49;27.93;;;11.97;;
19251;SDS011;9760;50.944;5.304;2022-12-18T14:09:48;27.73;;;11.70;;
19251;SDS011;9760;50.944;5.304;2022-12-18T14:12:17;26.03;;;11.17;;
19251;SDS011;9760;50.944;5.304;2022-12-18T14:15:02;28.70;;;12.00;;
19251;SDS011;9760;50.944;5.304;2022-12-18T14:17:29;29.87;;;12.67;;
19251;SDS011;9760;50.944;5.304;2022-12-18T14:19:56;31.03;;;12.80;;
19251;SDS011;9760;50.944;5.304;2022-12-18T14:22:25;32.30;;;12.30;;
19251;SDS011;9760;50.944;5.304;2022-12-18T14:27:38;26.70;;;12.37;;
19251;SDS011;9760;50.944;5.304;2022-12-18T14:30:23;28.50;;;11.83;;
19251;SDS011;9760;50.944;5.304;2022-12-18T14:33:02;28.37;;;12.33;;
19251;SDS011;9760;50.944;5.304;2022-12-18T14:35:28;28.93;;;12.20;;
19251;SDS011;9760;50.944;5.304;2022-12-18T14:37:55;32.07;;;12.83;;
19251;SDS011;9760;50.944;5.304;2022-12-18T14:40:35;35.77;;;12.60;;
19251;SDS011;9760;50.944;5.304;2022-12-18T14:43:01;30.43;;;12.27;;
19251;SDS011;9760;50.944;5.304;2022-12-18T14:48:00;33.30;;;12.53;;
19251;SDS011;9760;50.944;5.304;2022-12-18T14:50:30;29.00;;;12.33;;
19251;SDS011;9760;50.944;5.304;2022-12-18T14:52:56;37.43;;;13.20;;
19251;SDS011;9760;50.944;5.304;2022-12-18T14:55:21;34.00;;;12.87;;
19251;SDS011;9760;50.944;5.304;2022-12-18T14:57:49;26.53;;;11.33;;
19251;SDS011;9760;50.944;5.304;2022-12-18T15:00:18;29.00;;;11.67;;
19251;SDS011;9760;50.944;5.304;2022-12-18T15:02:46;28.53;;;11.87;;
19251;SDS011;9760;50.944;5.304;2022-12-18T15:05:19;26.10;;;10.83;;
19251;SDS011;9760;50.944;5.304;2022-12-18T15:07:46;27.77;;;12.27;;
19251;SDS011;9760;50.944;5.304;2022-12-18T15:10:15;28.83;;;11.63;;
19251;SDS011;9760;50.944;5.304;2022-12-18T15:17:59;25.70;;;11.27;;
19251;SDS011;9760;50.944;5.304;2022-12-18T15:20:25;29.33;;;11.83;;
19251;SDS011;9760;50.944;5.304;2022-12-18T15:22:51;26.03;;;10.90;;
19251;SDS011;9760;50.944;5.304;2022-12-18T15:25:34;29.23;;;10.90;;
19251;SDS011;9760;50.944;5.304;2022-12-18T15:28:02;30.33;;;11.93;;
19251;SDS011;9760;50.944;5.304;2022-12-18T15:30:28;26.40;;;11.83;;
19251;SDS011;9760;50.944;5.304;2022-12-18T15:35:55;31.33;;;11.60;;
19251;SDS011;9760;50.944;5.304;2022-12-18T15:38:22;28.47;;;11.67;;
19251;SDS011;9760;50.944;5.304;2022-12-18T15:40:47;34.87;;;12.23;;
19251;SDS011;9760;50.944;5.304;2022-12-18T15:43:13;33.00;;;11.80;;
19251;SDS011;9760;50.944;5.304;2022-12-18T15:45:57;29.83;;;11.57;;
19251;SDS011;9760;50.944;5.304;2022-12-18T15:48:23;30.67;;;12.27;;
19251;SDS011;9760;50.944;5.304;2022-12-18T15:50:50;31.90;;;12.20;;
19251;SDS011;9760;50.944;5.304;2022-12-18T15:53:17;35.30;;;13.07;;
19251;SDS011;9760;50.944;5.304;2022-12-18T15:55:43;28.50;;;11.20;;
19251;SDS011;9760;50.944;5.304;2022-12-18T15:58:27;35.97;;;12.63;;
19251;SDS011;9760;50.944;5.304;2022-12-18T16:00:53;34.03;;;12.03;;
19251;SDS011;9760;50.944;5.304;2022-12-18T16:03:21;28.83;;;11.73;;
19251;SDS011;9760;50.944;5.304;2022-12-18T16:05:46;29.07;;;11.60;;
19251;SDS011;9760;50.944;5.304;2022-12-18T16:08:12;27.00;;;11.13;;
19251;SDS011;9760;50.944;5.304;2022-12-18T16:10:38;32.37;;;12.50;;
19251;SDS011;9760;50.944;5.304;2022-12-18T16:13:03;30.47;;;11.70;;
19251;SDS011;9760;50.944;5.304;2022-12-18T16:15:29;29.13;;;12.57;;
19251;SDS011;9760;50.944;5.304;2022-12-18T16:17:56;31.17;;;12.60;;
19251;SDS011;9760;50.944;5.304;2022-12-18T16:20:21;33.00;;;12.73;;
19251;SDS011;9760;50.944;5.304;2022-12-18T16:22:47;33.70;;;13.13;;
19251;SDS011;9760;50.944;5.304;2022-12-18T16:25:32;31.40;;;12.90;;
19251;SDS011;9760;50.944;5.304;2022-12-18T16:27:57;30.13;;;12.00;;
19251;SDS011;9760;50.944;5.304;2022-12-18T16:30:24;34.97;;;12.63;;
19251;SDS011;9760;50.944;5.304;2022-12-18T16:32:53;31.33;;;12.27;;
19251;SDS011;9760;50.944;5.304;2022-12-18T16:35:19;32.17;;;12.23;;
19251;SDS011;9760;50.944;5.304;2022-12-18T16:37:45;29.93;;;12.77;;
19251;SDS011;9760;50.944;5.304;2022-12-18T16:40:12;32.53;;;12.50;;
19251;SDS011;9760;50.944;5.304;2022-12-18T16:42:39;33.90;;;13.13;;
19251;SDS011;9760;50.944;5.304;2022-12-18T16:45:08;32.13;;;12.93;;
19251;SDS011;9760;50.944;5.304;2022-12-18T16:47:35;32.00;;;12.97;;
19251;SDS011;9760;50.944;5.304;2022-12-18T16:50:02;30.90;;;12.67;;
19251;SDS011;9760;50.944;5.304;2022-12-18T16:52:29;35.23;;;13.77;;
19251;SDS011;9760;50.944;5.304;2022-12-18T16:54:54;44.17;;;13.27;;
19251;SDS011;9760;50.944;5.304;2022-12-18T16:57:20;31.57;;;13.03;;
19251;SDS011;9760;50.944;5.304;2022-12-18T16:59:46;32.50;;;11.67;;
19251;SDS011;9760;50.944;5.304;2022-12-18T17:02:16;27.17;;;12.53;;
19251;SDS011;9760;50.944;5.304;2022-12-18T17:04:47;31.47;;;11.83;;
19251;SDS011;9760;50.944;5.304;2022-12-18T17:07:13;36.27;;;11.80;;
19251;SDS011;9760;50.944;5.304;2022-12-18T17:09:40;33.23;;;12.30;;
19251;SDS011;9760;50.944;5.304;2022-12-18T17:12:06;33.50;;;12.53;;
19251;SDS011;9760;50.944;5.304;2022-12-18T17:14:32;31.50;;;12.00;;
19251;SDS011;9760;50.944;5.304;2022-12-18T17:16:58;31.07;;;12.63;;